Terminal Aerodrome Forecast
Issued by NWS Charleston, WV

Current Version | Previous Version | Graphics & Text | Print | Product List | Glossary On
Versions: 1 2 3 4 5 6 7 8 9 10 11 12 13 14 15 16 17 18 19 20 21 22
251
FTUS41 KRLX 230540
TAFPKB
TAF
KPKB 230540Z 2306/2406 00000KT P6SM FEW050 SCT090
     FM230700 00000KT 4SM BR BKN080
     FM230900 00000KT 2SM BR SCT090
     FM231200 00000KT 4SM BR SCT100
     FM231300 00000KT P6SM SCT070
     FM231900 VRB03KT P6SM SCT050=

USA.gov is the U.S. government's official web portal to all federal, state and local government web resources and services.